sensor_id;sensor_type;location;lat;lon;timestamp;P1;durP1;ratioP1;P2;durP2;ratioP2
23988;SDS011;12202;52.136;5.592;2022-12-24T00:01:18;47.25;;;6.60;;
23988;SDS011;12202;52.136;5.592;2022-12-24T00:03:44;60.03;;;8.23;;
23988;SDS011;12202;52.136;5.592;2022-12-24T00:06:22;66.45;;;9.18;;
23988;SDS011;12202;52.136;5.592;2022-12-24T00:08:49;61.00;;;8.13;;
23988;SDS011;12202;52.136;5.592;2022-12-24T00:11:15;64.10;;;9.52;;
23988;SDS011;12202;52.136;5.592;2022-12-24T00:13:41;59.50;;;8.45;;
23988;SDS011;12202;52.136;5.592;2022-12-24T00:16:07;51.47;;;8.98;;
23988;SDS011;12202;52.136;5.592;2022-12-24T00:18:33;57.88;;;8.80;;
23988;SDS011;12202;52.136;5.592;2022-12-24T00:20:59;64.70;;;9.38;;
23988;SDS011;12202;52.136;5.592;2022-12-24T00:23:27;52.60;;;8.63;;
23988;SDS011;12202;52.136;5.592;2022-12-24T00:25:53;59.58;;;10.63;;
23988;SDS011;12202;52.136;5.592;2022-12-24T00:28:20;70.35;;;8.95;;
23988;SDS011;12202;52.136;5.592;2022-12-24T00:30:46;68.07;;;8.05;;
23988;SDS011;12202;52.136;5.592;2022-12-24T00:33:12;68.05;;;9.25;;
23988;SDS011;12202;52.136;5.592;2022-12-24T00:35:39;64.10;;;8.55;;
23988;SDS011;12202;52.136;5.592;2022-12-24T00:38:05;64.30;;;8.45;;
23988;SDS011;12202;52.136;5.592;2022-12-24T00:40:31;61.47;;;8.80;;
23988;SDS011;12202;52.136;5.592;2022-12-24T00:42:57;62.10;;;9.00;;
23988;SDS011;12202;52.136;5.592;2022-12-24T00:45:24;56.90;;;8.02;;
23988;SDS011;12202;52.136;5.592;2022-12-24T00:47:51;62.65;;;8.48;;
23988;SDS011;12202;52.136;5.592;2022-12-24T00:50:17;63.55;;;9.82;;
23988;SDS011;12202;52.136;5.592;2022-12-24T00:52:43;67.95;;;9.02;;
23988;SDS011;12202;52.136;5.592;2022-12-24T00:55:09;49.70;;;8.57;;
23988;SDS011;12202;52.136;5.592;2022-12-24T00:57:35;78.53;;;10.70;;
23988;SDS011;12202;52.136;5.592;2022-12-24T01:00:02;65.28;;;7.82;;
23988;SDS011;12202;52.136;5.592;2022-12-24T01:02:28;67.57;;;9.68;;
23988;SDS011;12202;52.136;5.592;2022-12-24T01:04:54;61.53;;;9.57;;
23988;SDS011;12202;52.136;5.592;2022-12-24T01:07:36;61.03;;;9.10;;
23988;SDS011;12202;52.136;5.592;2022-12-24T01:10:03;64.60;;;9.20;;
23988;SDS011;12202;52.136;5.592;2022-12-24T01:12:29;64.18;;;8.23;;
23988;SDS011;12202;52.136;5.592;2022-12-24T01:14:55;59.83;;;8.55;;
23988;SDS011;12202;52.136;5.592;2022-12-24T01:17:21;47.67;;;8.43;;
23988;SDS011;12202;52.136;5.592;2022-12-24T01:19:47;69.38;;;9.98;;
23988;SDS011;12202;52.136;5.592;2022-12-24T01:22:13;65.32;;;7.57;;
23988;SDS011;12202;52.136;5.592;2022-12-24T01:24:39;51.47;;;7.80;;
23988;SDS011;12202;52.136;5.592;2022-12-24T01:27:06;71.10;;;10.05;;
23988;SDS011;12202;52.136;5.592;2022-12-24T01:29:32;65.95;;;10.25;;
23988;SDS011;12202;52.136;5.592;2022-12-24T01:31:58;53.50;;;7.72;;
23988;SDS011;12202;52.136;5.592;2022-12-24T01:34:24;57.42;;;9.60;;
23988;SDS011;12202;52.136;5.592;2022-12-24T01:36:50;74.13;;;9.82;;
23988;SDS011;12202;52.136;5.592;2022-12-24T01:39:16;54.13;;;9.50;;
23988;SDS011;12202;52.136;5.592;2022-12-24T01:41:42;60.65;;;8.57;;
23988;SDS011;12202;52.136;5.592;2022-12-24T01:44:28;58.25;;;9.52;;
23988;SDS011;12202;52.136;5.592;2022-12-24T01:49:52;65.43;;;10.73;;
23988;SDS011;12202;52.136;5.592;2022-12-24T01:52:20;74.25;;;10.52;;
23988;SDS011;12202;52.136;5.592;2022-12-24T01:54:57;68.32;;;8.27;;
23988;SDS011;12202;52.136;5.592;2022-12-24T01:57:26;64.28;;;9.65;;
23988;SDS011;12202;52.136;5.592;2022-12-24T01:59:54;69.07;;;10.00;;
23988;SDS011;12202;52.136;5.592;2022-12-24T02:02:20;67.68;;;8.75;;
23988;SDS011;12202;52.136;5.592;2022-12-24T02:05:04;82.50;;;9.43;;
23988;SDS011;12202;52.136;5.592;2022-12-24T02:07:30;71.38;;;10.38;;
23988;SDS011;12202;52.136;5.592;2022-12-24T02:09:57;57.22;;;8.55;;
23988;SDS011;12202;52.136;5.592;2022-12-24T02:12:24;77.25;;;9.68;;
23988;SDS011;12202;52.136;5.592;2022-12-24T02:14:50;60.33;;;11.38;;
23988;SDS011;12202;52.136;5.592;2022-12-24T02:17:24;68.25;;;9.65;;
23988;SDS011;12202;52.136;5.592;2022-12-24T02:30:20;76.50;;;11.00;;
23988;SDS011;12202;52.136;5.592;2022-12-24T02:33:22;73.78;;;8.88;;
23988;SDS011;12202;52.136;5.592;2022-12-24T02:35:47;62.30;;;12.32;;
23988;SDS011;12202;52.136;5.592;2022-12-24T02:38:23;66.70;;;9.45;;
23988;SDS011;12202;52.136;5.592;2022-12-24T02:40:57;54.63;;;8.98;;
23988;SDS011;12202;52.136;5.592;2022-12-24T02:43:25;69.47;;;10.40;;
23988;SDS011;12202;52.136;5.592;2022-12-24T02:45:54;94.38;;;12.88;;
23988;SDS011;12202;52.136;5.592;2022-12-24T02:48:22;79.40;;;10.52;;
23988;SDS011;12202;52.136;5.592;2022-12-24T02:51:00;78.10;;;9.95;;
23988;SDS011;12202;52.136;5.592;2022-12-24T02:53:27;69.72;;;12.02;;
23988;SDS011;12202;52.136;5.592;2022-12-24T03:01:08;63.72;;;8.65;;
23988;SDS011;12202;52.136;5.592;2022-12-24T03:06:09;68.85;;;9.63;;
23988;SDS011;12202;52.136;5.592;2022-12-24T03:08:46;78.57;;;10.00;;
23988;SDS011;12202;52.136;5.592;2022-12-24T03:11:14;68.68;;;11.38;;
23988;SDS011;12202;52.136;5.592;2022-12-24T03:13:40;68.00;;;10.25;;
23988;SDS011;12202;52.136;5.592;2022-12-24T03:16:07;60.55;;;9.80;;
23988;SDS011;12202;52.136;5.592;2022-12-24T03:18:35;72.63;;;8.57;;
23988;SDS011;12202;52.136;5.592;2022-12-24T03:21:05;71.22;;;10.60;;
23988;SDS011;12202;52.136;5.592;2022-12-24T03:23:32;60.45;;;8.65;;
23988;SDS011;12202;52.136;5.592;2022-12-24T03:25:59;71.03;;;10.68;;
23988;SDS011;12202;52.136;5.592;2022-12-24T03:28:26;63.08;;;9.23;;
23988;SDS011;12202;52.136;5.592;2022-12-24T03:30:52;68.85;;;9.27;;
23988;SDS011;12202;52.136;5.592;2022-12-24T03:33:19;68.00;;;8.65;;
23988;SDS011;12202;52.136;5.592;2022-12-24T03:35:45;76.75;;;10.02;;
23988;SDS011;12202;52.136;5.592;2022-12-24T03:38:11;71.10;;;8.60;;
23988;SDS011;12202;52.136;5.592;2022-12-24T03:40:37;62.17;;;8.25;;
23988;SDS011;12202;52.136;5.592;2022-12-24T03:43:03;84.55;;;9.10;;
23988;SDS011;12202;52.136;5.592;2022-12-24T03:45:29;60.03;;;8.57;;
23988;SDS011;12202;52.136;5.592;2022-12-24T03:47:55;69.40;;;10.32;;
23988;SDS011;12202;52.136;5.592;2022-12-24T03:50:21;62.78;;;9.63;;
23988;SDS011;12202;52.136;5.592;2022-12-24T03:52:47;83.70;;;11.15;;
23988;SDS011;12202;52.136;5.592;2022-12-24T03:55:13;63.42;;;9.18;;
23988;SDS011;12202;52.136;5.592;2022-12-24T03:57:39;73.72;;;11.15;;
23988;SDS011;12202;52.136;5.592;2022-12-24T04:00:05;80.18;;;10.55;;
23988;SDS011;12202;52.136;5.592;2022-12-24T04:02:31;77.60;;;9.48;;
23988;SDS011;12202;52.136;5.592;2022-12-24T04:04:57;99.53;;;11.05;;
23988;SDS011;12202;52.136;5.592;2022-12-24T04:07:23;96.60;;;10.95;;
23988;SDS011;12202;52.136;5.592;2022-12-24T04:09:49;84.88;;;9.70;;
23988;SDS011;12202;52.136;5.592;2022-12-24T04:12:15;64.18;;;10.25;;
23988;SDS011;12202;52.136;5.592;2022-12-24T04:14:41;77.63;;;10.18;;
23988;SDS011;12202;52.136;5.592;2022-12-24T04:17:07;77.90;;;9.02;;
23988;SDS011;12202;52.136;5.592;2022-12-24T04:19:33;76.28;;;9.38;;
23988;SDS011;12202;52.136;5.592;2022-12-24T04:21:59;86.47;;;11.05;;
23988;SDS011;12202;52.136;5.592;2022-12-24T04:24:25;88.43;;;11.13;;
23988;SDS011;12202;52.136;5.592;2022-12-24T04:26:51;99.03;;;12.15;;
23988;SDS011;12202;52.136;5.592;2022-12-24T04:29:17;66.78;;;12.38;;
23988;SDS011;12202;52.136;5.592;2022-12-24T04:31:43;81.45;;;11.63;;
23988;SDS011;12202;52.136;5.592;2022-12-24T04:34:09;79.03;;;9.95;;
23988;SDS011;12202;52.136;5.592;2022-12-24T04:36:35;72.45;;;11.02;;
23988;SDS011;12202;52.136;5.592;2022-12-24T04:39:01;75.43;;;12.15;;
23988;SDS011;12202;52.136;5.592;2022-12-24T04:41:27;71.47;;;11.95;;
23988;SDS011;12202;52.136;5.592;2022-12-24T04:43:54;96.30;;;12.20;;
23988;SDS011;12202;52.136;5.592;2022-12-24T04:46:21;74.38;;;11.85;;
23988;SDS011;12202;52.136;5.592;2022-12-24T04:48:48;92.90;;;11.90;;
23988;SDS011;12202;52.136;5.592;2022-12-24T04:51:15;74.78;;;11.68;;
23988;SDS011;12202;52.136;5.592;2022-12-24T04:53:41;93.32;;;16.00;;
23988;SDS011;12202;52.136;5.592;2022-12-24T04:56:11;88.75;;;14.60;;
23988;SDS011;12202;52.136;5.592;2022-12-24T04:58:38;96.35;;;13.43;;
23988;SDS011;12202;52.136;5.592;2022-12-24T05:01:05;81.68;;;12.07;;
23988;SDS011;12202;52.136;5.592;2022-12-24T05:03:31;90.82;;;14.23;;
23988;SDS011;12202;52.136;5.592;2022-12-24T05:06:04;97.07;;;14.65;;
23988;SDS011;12202;52.136;5.592;2022-12-24T05:08:31;78.93;;;11.75;;
23988;SDS011;12202;52.136;5.592;2022-12-24T05:10:58;80.80;;;12.48;;
23988;SDS011;12202;52.136;5.592;2022-12-24T05:13:25;77.85;;;13.13;;
23988;SDS011;12202;52.136;5.592;2022-12-24T05:15:51;75.03;;;12.38;;
23988;SDS011;12202;52.136;5.592;2022-12-24T05:18:17;83.53;;;11.77;;
23988;SDS011;12202;52.136;5.592;2022-12-24T05:20:44;68.88;;;12.27;;
23988;SDS011;12202;52.136;5.592;2022-12-24T05:23:17;63.45;;;12.82;;
23988;SDS011;12202;52.136;5.592;2022-12-24T05:26:02;63.30;;;11.48;;
23988;SDS011;12202;52.136;5.592;2022-12-24T05:28:50;60.72;;;10.05;;
23988;SDS011;12202;52.136;5.592;2022-12-24T05:31:17;79.47;;;10.20;;
23988;SDS011;12202;52.136;5.592;2022-12-24T05:33:43;81.53;;;12.02;;
23988;SDS011;12202;52.136;5.592;2022-12-24T05:36:09;83.18;;;14.70;;
23988;SDS011;12202;52.136;5.592;2022-12-24T05:38:35;71.35;;;11.60;;
23988;SDS011;12202;52.136;5.592;2022-12-24T05:41:01;77.70;;;11.80;;
23988;SDS011;12202;52.136;5.592;2022-12-24T05:43:27;72.65;;;11.02;;
23988;SDS011;12202;52.136;5.592;2022-12-24T05:46:00;65.35;;;12.02;;
23988;SDS011;12202;52.136;5.592;2022-12-24T05:48:29;95.22;;;14.75;;
23988;SDS011;12202;52.136;5.592;2022-12-24T05:51:06;59.88;;;10.85;;
23988;SDS011;12202;52.136;5.592;2022-12-24T05:53:33;69.70;;;13.60;;
23988;SDS011;12202;52.136;5.592;2022-12-24T05:56:06;66.55;;;11.15;;
23988;SDS011;12202;52.136;5.592;2022-12-24T05:58:32;78.63;;;12.65;;
23988;SDS011;12202;52.136;5.592;2022-12-24T06:00:59;79.85;;;12.90;;
23988;SDS011;12202;52.136;5.592;2022-12-24T06:03:29;84.80;;;14.32;;
23988;SDS011;12202;52.136;5.592;2022-12-24T06:06:04;89.22;;;12.95;;
23988;SDS011;12202;52.136;5.592;2022-12-24T06:08:31;102.78;;;14.07;;
23988;SDS011;12202;52.136;5.592;2022-12-24T06:10:58;82.80;;;12.73;;
23988;SDS011;12202;52.136;5.592;2022-12-24T06:13:24;81.63;;;11.90;;
23988;SDS011;12202;52.136;5.592;2022-12-24T06:15:54;86.43;;;14.02;;
23988;SDS011;12202;52.136;5.592;2022-12-24T06:18:20;96.78;;;14.75;;
23988;SDS011;12202;52.136;5.592;2022-12-24T06:20:49;81.72;;;11.98;;
23988;SDS011;12202;52.136;5.592;2022-12-24T06:23:15;70.57;;;12.90;;
23988;SDS011;12202;52.136;5.592;2022-12-24T06:25:44;79.85;;;12.38;;
23988;SDS011;12202;52.136;5.592;2022-12-24T06:28:10;83.97;;;11.95;;
23988;SDS011;12202;52.136;5.592;2022-12-24T06:30:36;79.93;;;12.68;;
23988;SDS011;12202;52.136;5.592;2022-12-24T06:33:02;93.18;;;14.82;;
23988;SDS011;12202;52.136;5.592;2022-12-24T06:35:30;95.03;;;12.27;;
23988;SDS011;12202;52.136;5.592;2022-12-24T06:37:56;87.65;;;13.63;;
23988;SDS011;12202;52.136;5.592;2022-12-24T06:40:22;94.80;;;13.63;;
23988;SDS011;12202;52.136;5.592;2022-12-24T06:42:48;69.82;;;11.40;;
23988;SDS011;12202;52.136;5.592;2022-12-24T06:45:14;84.20;;;13.48;;
23988;SDS011;12202;52.136;5.592;2022-12-24T06:47:40;103.07;;;14.57;;
23988;SDS011;12202;52.136;5.592;2022-12-24T06:50:06;116.18;;;15.18;;
23988;SDS011;12202;52.136;5.592;2022-12-24T06:52:32;100.38;;;15.30;;
23988;SDS011;12202;52.136;5.592;2022-12-24T06:54:58;76.05;;;13.52;;
23988;SDS011;12202;52.136;5.592;2022-12-24T06:57:24;120.20;;;15.70;;
23988;SDS011;12202;52.136;5.592;2022-12-24T06:59:52;99.28;;;15.57;;
23988;SDS011;12202;52.136;5.592;2022-12-24T07:02:18;86.72;;;13.57;;
23988;SDS011;12202;52.136;5.592;2022-12-24T07:04:44;89.55;;;14.00;;
23988;SDS011;12202;52.136;5.592;2022-12-24T07:07:10;107.68;;;16.50;;
23988;SDS011;12202;52.136;5.592;2022-12-24T07:09:36;99.55;;;16.13;;
23988;SDS011;12202;52.136;5.592;2022-12-24T07:12:02;109.72;;;16.17;;
23988;SDS011;12202;52.136;5.592;2022-12-24T07:14:29;93.13;;;15.77;;
23988;SDS011;12202;52.136;5.592;2022-12-24T07:16:54;87.80;;;13.55;;
23988;SDS011;12202;52.136;5.592;2022-12-24T07:19:21;99.30;;;14.95;;
23988;SDS011;12202;52.136;5.592;2022-12-24T07:21:47;92.70;;;13.15;;
23988;SDS011;12202;52.136;5.592;2022-12-24T07:24:14;90.25;;;13.73;;
23988;SDS011;12202;52.136;5.592;2022-12-24T07:26:40;99.95;;;15.55;;
23988;SDS011;12202;52.136;5.592;2022-12-24T07:29:08;94.15;;;12.57;;
23988;SDS011;12202;52.136;5.592;2022-12-24T07:31:34;88.35;;;14.85;;
23988;SDS011;12202;52.136;5.592;2022-12-24T07:34:00;88.28;;;10.95;;
23988;SDS011;12202;52.136;5.592;2022-12-24T07:36:26;92.25;;;14.23;;
23988;SDS011;12202;52.136;5.592;2022-12-24T07:38:53;97.80;;;13.07;;
23988;SDS011;12202;52.136;5.592;2022-12-24T07:41:19;78.20;;;13.18;;
23988;SDS011;12202;52.136;5.592;2022-12-24T07:43:45;90.55;;;13.90;;
23988;SDS011;12202;52.136;5.592;2022-12-24T07:46:11;83.35;;;12.80;;
23988;SDS011;12202;52.136;5.592;2022-12-24T07:48:37;97.57;;;13.63;;
23988;SDS011;12202;52.136;5.592;2022-12-24T07:51:03;91.32;;;14.50;;
23988;SDS011;12202;52.136;5.592;2022-12-24T07:53:29;102.22;;;14.60;;
23988;SDS011;12202;52.136;5.592;2022-12-24T07:55:56;89.90;;;14.50;;
23988;SDS011;12202;52.136;5.592;2022-12-24T07:58:22;87.20;;;14.43;;
23988;SDS011;12202;52.136;5.592;2022-12-24T08:00:48;92.38;;;13.57;;
23988;SDS011;12202;52.136;5.592;2022-12-24T08:03:15;104.25;;;14.27;;
23988;SDS011;12202;52.136;5.592;2022-12-24T08:05:41;89.82;;;14.90;;
23988;SDS011;12202;52.136;5.592;2022-12-24T08:08:07;89.32;;;12.32;;
23988;SDS011;12202;52.136;5.592;2022-12-24T08:10:33;91.57;;;12.93;;
23988;SDS011;12202;52.136;5.592;2022-12-24T08:13:02;81.85;;;11.18;;
23988;SDS011;12202;52.136;5.592;2022-12-24T08:15:28;91.25;;;12.68;;
23988;SDS011;12202;52.136;5.592;2022-12-24T08:17:54;84.50;;;11.43;;
23988;SDS011;12202;52.136;5.592;2022-12-24T08:20:20;85.35;;;13.70;;
23988;SDS011;12202;52.136;5.592;2022-12-24T08:22:46;103.32;;;13.93;;
23988;SDS011;12202;52.136;5.592;2022-12-24T08:25:12;89.70;;;12.90;;
23988;SDS011;12202;52.136;5.592;2022-12-24T08:27:38;92.80;;;13.93;;
23988;SDS011;12202;52.136;5.592;2022-12-24T08:30:04;73.90;;;11.65;;
23988;SDS011;12202;52.136;5.592;2022-12-24T08:32:30;88.30;;;12.60;;
23988;SDS011;12202;52.136;5.592;2022-12-24T08:34:56;86.15;;;13.85;;
23988;SDS011;12202;52.136;5.592;2022-12-24T08:37:22;75.68;;;12.43;;
23988;SDS011;12202;52.136;5.592;2022-12-24T08:39:48;64.78;;;10.90;;
23988;SDS011;12202;52.136;5.592;2022-12-24T08:42:14;107.20;;;14.75;;
23988;SDS011;12202;52.136;5.592;2022-12-24T08:44:40;76.00;;;12.30;;
23988;SDS011;12202;52.136;5.592;2022-12-24T08:47:09;80.13;;;13.20;;
23988;SDS011;12202;52.136;5.592;2022-12-24T08:49:35;108.50;;;14.60;;
23988;SDS011;12202;52.136;5.592;2022-12-24T08:52:01;95.72;;;13.68;;
23988;SDS011;12202;52.136;5.592;2022-12-24T08:54:27;84.15;;;11.65;;
23988;SDS011;12202;52.136;5.592;2022-12-24T08:56:53;87.43;;;13.27;;
23988;SDS011;12202;52.136;5.592;2022-12-24T08:59:18;91.80;;;12.75;;
23988;SDS011;12202;52.136;5.592;2022-12-24T09:01:45;81.05;;;13.45;;
23988;SDS011;12202;52.136;5.592;2022-12-24T09:04:11;89.22;;;17.52;;
23988;SDS011;12202;52.136;5.592;2022-12-24T09:06:36;87.97;;;14.23;;
23988;SDS011;12202;52.136;5.592;2022-12-24T09:09:03;84.63;;;13.98;;
23988;SDS011;12202;52.136;5.592;2022-12-24T09:11:29;79.47;;;12.68;;
23988;SDS011;12202;52.136;5.592;2022-12-24T09:13:55;69.15;;;13.77;;
23988;SDS011;12202;52.136;5.592;2022-12-24T09:16:21;77.60;;;13.85;;
23988;SDS011;12202;52.136;5.592;2022-12-24T09:18:47;92.43;;;13.52;;
23988;SDS011;12202;52.136;5.592;2022-12-24T09:21:13;72.32;;;12.70;;
23988;SDS011;12202;52.136;5.592;2022-12-24T09:23:40;77.18;;;13.85;;
23988;SDS011;12202;52.136;5.592;2022-12-24T09:26:07;100.63;;;15.90;;
23988;SDS011;12202;52.136;5.592;2022-12-24T09:28:33;71.13;;;12.65;;
23988;SDS011;12202;52.136;5.592;2022-12-24T09:31:00;81.50;;;13.80;;
23988;SDS011;12202;52.136;5.592;2022-12-24T09:33:28;93.20;;;14.18;;
23988;SDS011;12202;52.136;5.592;2022-12-24T09:35:54;83.38;;;15.60;;
23988;SDS011;12202;52.136;5.592;2022-12-24T09:38:20;91.03;;;16.00;;
23988;SDS011;12202;52.136;5.592;2022-12-24T09:40:47;80.82;;;14.30;;
23988;SDS011;12202;52.136;5.592;2022-12-24T09:43:18;93.68;;;17.92;;
23988;SDS011;12202;52.136;5.592;2022-12-24T09:45:49;86.38;;;18.08;;
23988;SDS011;12202;52.136;5.592;2022-12-24T09:48:20;64.55;;;14.70;;
23988;SDS011;12202;52.136;5.592;2022-12-24T09:50:58;80.90;;;14.75;;
23988;SDS011;12202;52.136;5.592;2022-12-24T09:55:57;71.03;;;15.05;;
23988;SDS011;12202;52.136;5.592;2022-12-24T09:58:26;69.45;;;13.27;;
23988;SDS011;12202;52.136;5.592;2022-12-24T10:00:53;86.20;;;16.15;;
23988;SDS011;12202;52.136;5.592;2022-12-24T10:03:20;72.00;;;12.90;;
23988;SDS011;12202;52.136;5.592;2022-12-24T10:08:36;74.75;;;13.80;;
23988;SDS011;12202;52.136;5.592;2022-12-24T10:11:12;75.15;;;11.73;;
23988;SDS011;12202;52.136;5.592;2022-12-24T10:13:49;78.32;;;12.27;;
23988;SDS011;12202;52.136;5.592;2022-12-24T10:16:31;72.05;;;15.10;;
23988;SDS011;12202;52.136;5.592;2022-12-24T10:19:05;82.15;;;12.65;;
23988;SDS011;12202;52.136;5.592;2022-12-24T10:26:53;70.90;;;13.43;;
23988;SDS011;12202;52.136;5.592;2022-12-24T10:29:28;64.90;;;10.88;;
23988;SDS011;12202;52.136;5.592;2022-12-24T10:32:00;81.35;;;12.55;;
23988;SDS011;12202;52.136;5.592;2022-12-24T10:34:28;66.82;;;11.48;;
23988;SDS011;12202;52.136;5.592;2022-12-24T10:36:55;69.03;;;12.73;;
23988;SDS011;12202;52.136;5.592;2022-12-24T10:39:23;62.47;;;10.43;;
23988;SDS011;12202;52.136;5.592;2022-12-24T10:41:51;86.40;;;11.50;;
23988;SDS011;12202;52.136;5.592;2022-12-24T10:44:18;75.60;;;13.40;;
23988;SDS011;12202;52.136;5.592;2022-12-24T10:46:46;66.68;;;10.52;;
23988;SDS011;12202;52.136;5.592;2022-12-24T10:49:19;65.80;;;12.60;;
23988;SDS011;12202;52.136;5.592;2022-12-24T10:51:52;62.78;;;11.98;;
23988;SDS011;12202;52.136;5.592;2022-12-24T10:54:20;70.05;;;14.00;;
23988;SDS011;12202;52.136;5.592;2022-12-24T10:56:47;57.03;;;10.95;;
23988;SDS011;12202;52.136;5.592;2022-12-24T10:59:24;72.18;;;13.05;;
23988;SDS011;12202;52.136;5.592;2022-12-24T11:01:50;68.05;;;13.20;;
23988;SDS011;12202;52.136;5.592;2022-12-24T11:04:18;62.85;;;11.43;;
23988;SDS011;12202;52.136;5.592;2022-12-24T11:09:44;61.17;;;11.75;;
23988;SDS011;12202;52.136;5.592;2022-12-24T11:12:20;67.80;;;12.18;;
23988;SDS011;12202;52.136;5.592;2022-12-24T11:14:54;61.10;;;11.95;;
23988;SDS011;12202;52.136;5.592;2022-12-24T11:17:26;65.97;;;11.02;;
23988;SDS011;12202;52.136;5.592;2022-12-24T11:19:52;68.45;;;11.13;;
23988;SDS011;12202;52.136;5.592;2022-12-24T11:22:28;76.97;;;11.43;;
23988;SDS011;12202;52.136;5.592;2022-12-24T11:25:05;64.60;;;10.93;;
23988;SDS011;12202;52.136;5.592;2022-12-24T11:27:39;56.80;;;10.20;;
23988;SDS011;12202;52.136;5.592;2022-12-24T11:32:38;48.22;;;9.75;;
23988;SDS011;12202;52.136;5.592;2022-12-24T11:35:07;53.35;;;9.63;;
23988;SDS011;12202;52.136;5.592;2022-12-24T11:37:34;56.97;;;9.73;;
23988;SDS011;12202;52.136;5.592;2022-12-24T11:40:00;61.50;;;10.40;;
23988;SDS011;12202;52.136;5.592;2022-12-24T11:42:33;56.97;;;9.20;;
23988;SDS011;12202;52.136;5.592;2022-12-24T11:45:01;69.55;;;11.18;;
23988;SDS011;12202;52.136;5.592;2022-12-24T11:47:32;49.58;;;9.98;;
23988;SDS011;12202;52.136;5.592;2022-12-24T11:52:44;54.42;;;7.93;;
23988;SDS011;12202;52.136;5.592;2022-12-24T11:57:49;43.92;;;8.50;;
23988;SDS011;12202;52.136;5.592;2022-12-24T12:00:17;41.92;;;7.68;;
23988;SDS011;12202;52.136;5.592;2022-12-24T12:02:44;41.25;;;8.63;;
23988;SDS011;12202;52.136;5.592;2022-12-24T12:05:14;39.28;;;8.43;;
23988;SDS011;12202;52.136;5.592;2022-12-24T12:08:00;52.30;;;9.80;;
23988;SDS011;12202;52.136;5.592;2022-12-24T12:10:30;46.88;;;7.80;;
23988;SDS011;12202;52.136;5.592;2022-12-24T12:13:13;41.10;;;7.95;;
23988;SDS011;12202;52.136;5.592;2022-12-24T12:15:44;35.72;;;7.45;;
23988;SDS011;12202;52.136;5.592;2022-12-24T12:18:18;40.42;;;7.90;;
23988;SDS011;12202;52.136;5.592;2022-12-24T12:20:47;30.45;;;5.90;;
23988;SDS011;12202;52.136;5.592;2022-12-24T12:23:25;38.80;;;7.20;;
23988;SDS011;12202;52.136;5.592;2022-12-24T12:25:53;43.20;;;7.80;;
23988;SDS011;12202;52.136;5.592;2022-12-24T12:31:00;37.25;;;7.15;;
23988;SDS011;12202;52.136;5.592;2022-12-24T12:33:31;41.90;;;7.18;;
23988;SDS011;12202;52.136;5.592;2022-12-24T12:35:59;38.75;;;7.90;;
23988;SDS011;12202;52.136;5.592;2022-12-24T12:38:26;51.95;;;8.57;;
23988;SDS011;12202;52.136;5.592;2022-12-24T12:43:59;34.85;;;6.85;;
23988;SDS011;12202;52.136;5.592;2022-12-24T12:46:44;59.58;;;9.57;;
23988;SDS011;12202;52.136;5.592;2022-12-24T12:49:23;55.20;;;10.05;;
23988;SDS011;12202;52.136;5.592;2022-12-24T12:54:46;51.72;;;11.73;;
23988;SDS011;12202;52.136;5.592;2022-12-24T12:57:23;59.60;;;10.90;;
23988;SDS011;12202;52.136;5.592;2022-12-24T12:59:52;53.30;;;11.27;;
23988;SDS011;12202;52.136;5.592;2022-12-24T13:10:00;42.60;;;8.45;;
23988;SDS011;12202;52.136;5.592;2022-12-24T13:12:34;41.05;;;7.43;;
23988;SDS011;12202;52.136;5.592;2022-12-24T13:18:12;49.63;;;8.27;;
23988;SDS011;12202;52.136;5.592;2022-12-24T13:20:33;42.15;;;7.65;;
23988;SDS011;12202;52.136;5.592;2022-12-24T13:23:03;48.53;;;8.80;;
23988;SDS011;12202;52.136;5.592;2022-12-24T13:25:39;41.90;;;7.35;;
23988;SDS011;12202;52.136;5.592;2022-12-24T13:30:41;54.75;;;10.32;;
23988;SDS011;12202;52.136;5.592;2022-12-24T13:33:11;40.00;;;7.95;;
23988;SDS011;12202;52.136;5.592;2022-12-24T13:35:55;51.97;;;10.63;;
23988;SDS011;12202;52.136;5.592;2022-12-24T13:40:52;38.58;;;7.80;;
23988;SDS011;12202;52.136;5.592;2022-12-24T13:43:18;36.92;;;7.60;;
23988;SDS011;12202;52.136;5.592;2022-12-24T13:45:50;46.13;;;9.48;;
23988;SDS011;12202;52.136;5.592;2022-12-24T13:56:26;42.03;;;9.38;;
23988;SDS011;12202;52.136;5.592;2022-12-24T13:58:50;45.92;;;8.38;;
23988;SDS011;12202;52.136;5.592;2022-12-24T14:01:20;46.72;;;9.18;;
23988;SDS011;12202;52.136;5.592;2022-12-24T14:03:51;45.70;;;9.57;;
23988;SDS011;12202;52.136;5.592;2022-12-24T14:06:28;40.38;;;8.85;;
23988;SDS011;12202;52.136;5.592;2022-12-24T14:09:14;38.75;;;8.82;;
23988;SDS011;12202;52.136;5.592;2022-12-24T14:14:25;33.67;;;9.90;;
23988;SDS011;12202;52.136;5.592;2022-12-24T14:16:52;48.72;;;10.50;;
23988;SDS011;12202;52.136;5.592;2022-12-24T14:19:21;51.70;;;12.45;;
23988;SDS011;12202;52.136;5.592;2022-12-24T14:21:50;43.65;;;7.93;;
23988;SDS011;12202;52.136;5.592;2022-12-24T14:24:27;43.95;;;9.18;;
23988;SDS011;12202;52.136;5.592;2022-12-24T14:26:57;36.17;;;8.35;;
23988;SDS011;12202;52.136;5.592;2022-12-24T14:29:37;41.38;;;7.72;;
23988;SDS011;12202;52.136;5.592;2022-12-24T14:32:13;42.22;;;8.00;;
23988;SDS011;12202;52.136;5.592;2022-12-24T14:34:39;42.00;;;9.45;;
23988;SDS011;12202;52.136;5.592;2022-12-24T14:37:05;48.22;;;11.23;;
23988;SDS011;12202;52.136;5.592;2022-12-24T14:39:33;50.67;;;9.75;;
23988;SDS011;12202;52.136;5.592;2022-12-24T14:42:16;43.65;;;8.80;;
23988;SDS011;12202;52.136;5.592;2022-12-24T14:44:59;56.58;;;16.48;;
23988;SDS011;12202;52.136;5.592;2022-12-24T14:47:29;43.67;;;11.75;;
23988;SDS011;12202;52.136;5.592;2022-12-24T14:52:26;51.50;;;12.57;;
23988;SDS011;12202;52.136;5.592;2022-12-24T14:54:55;55.22;;;13.45;;
23988;SDS011;12202;52.136;5.592;2022-12-24T14:57:24;47.72;;;13.88;;
23988;SDS011;12202;52.136;5.592;2022-12-24T14:59:51;60.80;;;15.48;;
23988;SDS011;12202;52.136;5.592;2022-12-24T15:05:16;49.35;;;14.63;;
23988;SDS011;12202;52.136;5.592;2022-12-24T15:07:46;56.42;;;13.48;;
23988;SDS011;12202;52.136;5.592;2022-12-24T15:10:25;58.05;;;17.25;;
23988;SDS011;12202;52.136;5.592;2022-12-24T15:12:52;54.15;;;17.60;;
23988;SDS011;12202;52.136;5.592;2022-12-24T15:15:19;60.63;;;16.08;;
23988;SDS011;12202;52.136;5.592;2022-12-24T15:17:45;61.40;;;15.52;;
23988;SDS011;12202;52.136;5.592;2022-12-24T15:20:15;87.13;;;32.65;;
23988;SDS011;12202;52.136;5.592;2022-12-24T15:22:42;86.40;;;30.83;;
23988;SDS011;12202;52.136;5.592;2022-12-24T15:27:44;144.05;;;59.60;;
23988;SDS011;12202;52.136;5.592;2022-12-24T15:30:14;176.23;;;79.40;;
23988;SDS011;12202;52.136;5.592;2022-12-24T15:32:44;109.85;;;42.33;;
23988;SDS011;12202;52.136;5.592;2022-12-24T15:35:29;89.80;;;34.67;;
23988;SDS011;12202;52.136;5.592;2022-12-24T15:37:56;79.97;;;16.70;;
23988;SDS011;12202;52.136;5.592;2022-12-24T15:40:23;45.85;;;12.43;;
23988;SDS011;12202;52.136;5.592;2022-12-24T15:42:50;53.47;;;10.15;;
23988;SDS011;12202;52.136;5.592;2022-12-24T15:45:18;56.22;;;12.35;;
23988;SDS011;12202;52.136;5.592;2022-12-24T15:47:56;54.90;;;10.68;;
23988;SDS011;12202;52.136;5.592;2022-12-24T15:50:34;72.25;;;15.82;;
23988;SDS011;12202;52.136;5.592;2022-12-24T15:53:10;65.00;;;11.60;;
23988;SDS011;12202;52.136;5.592;2022-12-24T15:55:38;63.40;;;11.13;;
23988;SDS011;12202;52.136;5.592;2022-12-24T16:00:43;67.55;;;16.17;;
23988;SDS011;12202;52.136;5.592;2022-12-24T16:03:19;70.18;;;15.65;;